Time;durP1;ratioP1;P1;durP2;ratioP2;P2;SDS_P1;SDS_P2;PMS_P1;PMS_P2;Temp;Humidity;BMP_temperature;BMP_pressure;BME280_temperature;BME280_humidity;BME280_pressure;Samples;Min_cycle;Max_cycle;Signal;HPM_P1;HPM_P2
2022/01/06 00:01:05;;;;;;;1.73;1.63;;;3.50;99.90;;;;;;5102787;28;20242;-84
2022/01/06 00:03:35;;;;;;;1.95;1.27;;;3.50;99.90;;;;;;5103618;28;20216;-84
2022/01/06 00:06:07;;;;;;;2.17;1.40;;;3.50;99.90;;;;;;5105072;28;20227;-84
2022/01/06 00:08:37;;;;;;;3.42;1.80;;;3.50;99.90;;;;;;5104838;28;20192;-84
2022/01/06 00:11:07;;;;;;;1.75;1.65;;;3.40;99.90;;;;;;5107672;28;20254;-84
2022/01/06 00:13:49;;;;;;;5.18;1.63;;;3.50;99.90;;;;;;5106581;28;20212;-85
2022/01/06 00:16:29;;;;;;;1.77;1.33;;;3.40;99.90;;;;;;5106127;28;20306;-84
2022/01/06 00:24:29;;;;;;;10.95;1.40;;;3.40;99.90;;;;;;5112479;28;20227;-84
2022/01/06 00:26:58;;;;;;;2.57;1.80;;;3.40;99.90;;;;;;5107901;27;20251;-84
2022/01/06 00:29:28;;;;;;;2.10;1.90;;;3.40;99.90;;;;;;5102323;28;20230;-84
2022/01/06 00:31:56;;;;;;;2.53;1.70;;;3.40;99.90;;;;;;5106570;28;20197;-84
2022/01/06 00:34:25;;;;;;;2.30;1.57;;;3.40;99.90;;;;;;5109311;28;20196;-84
2022/01/06 00:36:54;;;;;;;1.83;1.47;;;3.40;99.90;;;;;;5105769;28;20239;-84
2022/01/06 00:39:27;;;;;;;1.43;1.33;;;3.40;99.90;;;;;;5109117;28;20226;-83
2022/01/06 00:41:58;;;;;;;1.20;1.10;;;3.40;99.90;;;;;;5111669;28;20287;-84
2022/01/06 00:44:28;;;;;;;3.63;1.70;;;3.40;99.90;;;;;;5093992;28;20298;-83
2022/01/06 00:46:56;;;;;;;2.43;1.57;;;3.40;99.90;;;;;;5094868;28;20224;-83
2022/01/06 00:49:24;;;;;;;1.58;1.48;;;3.40;99.90;;;;;;5097135;28;20223;-84
2022/01/06 00:51:53;;;;;;;1.57;1.47;;;3.30;99.90;;;;;;5109321;28;20204;-83
2022/01/06 00:54:21;;;;;;;3.67;1.90;;;3.30;99.90;;;;;;5100408;28;20196;-82
2022/01/06 00:56:50;;;;;;;6.27;1.57;;;3.40;99.90;;;;;;5100878;28;20224;-82
2022/01/06 00:59:18;;;;;;;3.77;1.40;;;3.30;99.90;;;;;;5102105;27;20201;-83
2022/01/06 01:01:48;;;;;;;8.60;1.37;;;3.30;99.90;;;;;;5103046;28;20246;-82
2022/01/06 01:04:17;;;;;;;1.50;1.33;;;3.30;99.90;;;;;;5105276;27;20285;-83
2022/01/06 01:06:45;;;;;;;2.13;1.20;;;3.30;99.90;;;;;;5103592;28;20208;-83
2022/01/06 01:09:14;;;;;;;1.40;1.30;;;3.40;99.90;;;;;;5099204;28;20213;-83
2022/01/06 01:11:42;;;;;;;0.90;0.90;;;3.40;99.90;;;;;;5093568;28;20200;-83
2022/01/06 01:14:18;;;;;;;2.70;1.50;;;3.40;99.90;;;;;;5104558;28;20222;-83
2022/01/06 01:16:54;;;;;;;1.40;1.30;;;3.30;99.90;;;;;;5102496;28;20212;-83
2022/01/06 01:19:23;;;;;;;3.73;1.70;;;3.40;99.90;;;;;;5103872;28;20193;-89
2022/01/06 01:21:53;;;;;;;2.30;1.40;;;3.30;99.90;;;;;;5103358;28;20192;-90
2022/01/06 01:24:22;;;;;;;3.57;1.73;;;3.40;99.90;;;;;;5102064;27;20221;-90
2022/01/06 01:26:50;;;;;;;1.97;1.33;;;3.30;99.90;;;;;;5103423;27;20213;-89
2022/01/06 01:29:19;;;;;;;11.73;1.43;;;3.30;99.90;;;;;;5102513;27;20261;-87
2022/01/06 01:31:50;;;;;;;4.13;1.73;;;3.40;99.90;;;;;;5104961;28;20263;-90
2022/01/06 01:34:23;;;;;;;2.17;1.20;;;3.30;99.90;;;;;;5108395;28;20197;-90
2022/01/06 01:36:52;;;;;;;2.10;1.20;;;3.30;99.90;;;;;;5094075;28;20220;-91
2022/01/06 01:39:21;;;;;;;1.60;1.50;;;3.30;99.90;;;;;;5092691;28;20204;-90
2022/01/06 01:41:50;;;;;;;1.83;1.00;;;3.20;99.90;;;;;;5093957;28;20232;-90
2022/01/06 01:44:20;;;;;;;2.27;1.80;;;3.30;99.90;;;;;;5093357;28;20220;-90
2022/01/06 01:47:00;;;;;;;5.17;1.80;;;3.20;99.90;;;;;;5093619;28;20228;-90
2022/01/06 01:49:42;;;;;;;3.30;1.97;;;3.20;99.90;;;;;;5095843;28;20223;-90
2022/01/06 01:52:11;;;;;;;2.72;1.95;;;3.20;99.90;;;;;;5093826;28;20204;-90
2022/01/06 01:54:39;;;;;;;2.05;1.45;;;3.20;99.90;;;;;;5093627;28;20204;-90
2022/01/06 01:57:08;;;;;;;2.50;1.40;;;3.20;99.90;;;;;;5093450;28;20237;-91
2022/01/06 01:59:36;;;;;;;1.67;1.40;;;3.20;99.90;;;;;;5092915;28;20262;-90
2022/01/06 02:02:08;;;;;;;1.80;1.27;;;3.20;99.90;;;;;;5092894;28;20204;-85
2022/01/06 02:04:37;;;;;;;1.35;1.20;;;3.20;99.90;;;;;;5093129;28;20251;-87
2022/01/06 02:07:05;;;;;;;2.28;1.63;;;3.20;99.90;;;;;;5093370;28;20251;-87
2022/01/06 02:09:34;;;;;;;2.80;1.70;;;3.20;99.90;;;;;;5092508;28;20235;-87
2022/01/06 02:12:03;;;;;;;6.03;1.83;;;3.20;99.90;;;;;;5092904;28;20333;-88
2022/01/06 02:14:33;;;;;;;6.60;2.13;;;3.20;99.90;;;;;;5093139;28;20279;-88
2022/01/06 02:17:02;;;;;;;7.60;1.93;;;3.20;99.90;;;;;;5093079;28;20312;-87
2022/01/06 02:19:32;;;;;;;1.33;1.23;;;3.20;99.90;;;;;;5092449;28;20228;-88
2022/01/06 02:22:02;;;;;;;1.77;1.52;;;3.20;99.90;;;;;;5092746;28;20278;-88
2022/01/06 02:24:30;;;;;;;1.60;1.50;;;3.20;99.90;;;;;;5092629;28;20248;-88
2022/01/06 02:26:59;;;;;;;3.65;1.73;;;3.20;99.90;;;;;;5092687;28;20228;-88
2022/01/06 02:29:27;;;;;;;1.80;1.70;;;3.20;99.90;;;;;;5092536;28;20236;-88
2022/01/06 02:31:58;;;;;;;3.33;1.90;;;3.20;99.90;;;;;;5092870;28;20263;-88
2022/01/06 02:34:26;;;;;;;3.80;1.83;;;3.10;99.90;;;;;;5092869;28;20273;-88
2022/01/06 02:36:55;;;;;;;3.58;2.08;;;3.10;99.90;;;;;;5092497;28;20228;-87
2022/01/06 02:39:25;;;;;;;1.50;1.40;;;3.10;99.90;;;;;;5092425;28;20235;-87
2022/01/06 02:41:53;;;;;;;1.70;1.42;;;3.20;99.90;;;;;;5092519;28;20205;-88
2022/01/06 02:44:24;;;;;;;0.60;0.60;;;3.20;99.90;;;;;;5092829;28;20240;-88
2022/01/06 02:46:53;;;;;;;1.85;1.35;;;3.20;99.90;;;;;;5092924;28;20221;-88
2022/01/06 02:49:22;;;;;;;1.73;1.33;;;3.20;99.90;;;;;;5092667;28;20271;-87
2022/01/06 02:51:51;;;;;;;2.57;2.07;;;3.10;99.90;;;;;;5092344;28;20224;-87
2022/01/06 02:54:21;;;;;;;1.13;0.95;;;3.10;99.90;;;;;;5092502;28;20212;-87
2022/01/06 02:56:52;;;;;;;6.57;1.77;;;3.10;99.90;;;;;;5092293;28;20302;-87
2022/01/06 02:59:20;;;;;;;1.70;1.13;;;3.20;99.90;;;;;;5092292;28;20279;-87
2022/01/06 03:01:49;;;;;;;4.17;2.13;;;3.10;99.90;;;;;;5092453;28;20268;-88
2022/01/06 03:04:18;;;;;;;2.83;1.47;;;3.10;99.90;;;;;;5092218;28;20307;-87
2022/01/06 03:06:47;;;;;;;1.47;0.97;;;3.10;99.90;;;;;;5090689;28;20292;-88
2022/01/06 03:09:24;;;;;;;2.92;1.80;;;3.10;99.90;;;;;;5091991;28;20243;-88
2022/01/06 03:11:54;;;;;;;1.40;1.30;;;3.10;99.90;;;;;;5092439;28;20235;-88
2022/01/06 03:14:22;;;;;;;1.60;1.17;;;3.10;99.90;;;;;;5092672;28;20224;-88
2022/01/06 03:16:52;;;;;;;1.63;1.45;;;3.10;99.90;;;;;;5092781;28;20234;-87
2022/01/06 03:19:20;;;;;;;1.93;1.57;;;3.10;99.90;;;;;;5092046;28;20235;-87
2022/01/06 03:21:48;;;;;;;3.27;1.87;;;3.10;99.90;;;;;;5092458;28;20239;-88
2022/01/06 03:24:17;;;;;;;2.03;1.50;;;3.10;99.90;;;;;;5092481;28;20328;-88
2022/01/06 03:26:45;;;;;;;2.23;1.53;;;3.10;99.90;;;;;;5092462;28;20255;-88
2022/01/06 03:29:15;;;;;;;1.90;1.40;;;3.10;99.90;;;;;;5091864;28;20299;-87
2022/01/06 03:31:43;;;;;;;1.40;1.30;;;3.10;99.90;;;;;;5092199;28;20287;-87
2022/01/06 03:34:12;;;;;;;2.60;1.20;;;3.10;99.90;;;;;;5092013;28;20283;-88
2022/01/06 03:36:40;;;;;;;1.45;1.10;;;3.10;99.90;;;;;;5092308;28;20248;-88
2022/01/06 03:39:09;;;;;;;4.53;1.87;;;3.10;99.90;;;;;;5091614;28;20292;-88
2022/01/06 03:41:37;;;;;;;4.13;2.17;;;3.10;99.90;;;;;;5092106;28;20235;-88
2022/01/06 03:44:06;;;;;;;3.20;1.83;;;3.10;99.90;;;;;;5092417;28;20208;-88
2022/01/06 03:46:35;;;;;;;1.87;1.63;;;3.10;99.90;;;;;;5092102;28;20221;-88
2022/01/06 03:49:04;;;;;;;2.33;1.83;;;3.10;99.90;;;;;;5091561;28;20200;-88
2022/01/06 03:51:33;;;;;;;1.80;1.70;;;3.10;99.90;;;;;;5092075;28;20208;-88
2022/01/06 03:54:02;;;;;;;4.33;1.50;;;3.10;99.90;;;;;;5091747;28;20231;-88
2022/01/06 03:56:30;;;;;;;1.90;1.17;;;3.10;99.90;;;;;;5092452;28;20263;-88
2022/01/06 03:58:59;;;;;;;2.30;1.60;;;3.20;99.90;;;;;;5091806;28;20208;-88
2022/01/06 04:01:27;;;;;;;1.87;1.60;;;3.20;99.90;;;;;;5091991;28;20235;-88
2022/01/06 04:03:57;;;;;;;2.08;1.58;;;3.10;99.90;;;;;;5091875;28;20208;-87
2022/01/06 04:06:26;;;;;;;1.97;1.50;;;3.10;99.90;;;;;;5091879;28;20271;-88
2022/01/06 04:08:54;;;;;;;2.90;1.83;;;3.10;99.90;;;;;;5095057;28;20238;-88
2022/01/06 04:11:23;;;;;;;1.87;1.70;;;3.10;99.90;;;;;;5095661;28;20204;-88
2022/01/06 04:13:51;;;;;;;8.03;1.90;;;3.10;99.90;;;;;;5095364;28;20205;-88
2022/01/06 04:16:19;;;;;;;1.85;1.20;;;3.10;99.90;;;;;;5095437;28;20227;-88
2022/01/06 04:18:48;;;;;;;3.90;1.80;;;3.20;99.90;;;;;;5094797;28;20238;-88
2022/01/06 04:21:18;;;;;;;2.23;1.40;;;3.20;99.90;;;;;;5095038;28;20201;-88
2022/01/06 04:23:47;;;;;;;1.50;1.40;;;3.10;99.90;;;;;;5095187;28;20239;-88
2022/01/06 04:26:16;;;;;;;2.00;1.57;;;3.20;99.90;;;;;;5095020;28;20288;-88
2022/01/06 04:28:44;;;;;;;2.20;1.77;;;3.10;99.90;;;;;;5094217;28;20205;-87
2022/01/06 04:31:13;;;;;;;5.23;1.93;;;3.20;99.90;;;;;;5095219;28;20220;-87
2022/01/06 04:33:41;;;;;;;1.97;1.77;;;3.20;99.90;;;;;;5095007;28;20205;-88
2022/01/06 04:36:09;;;;;;;2.22;1.42;;;3.20;99.90;;;;;;5095398;28;20283;-88
2022/01/06 04:38:39;;;;;;;1.50;1.40;;;3.20;99.90;;;;;;5094799;28;20241;-88
2022/01/06 04:41:08;;;;;;;3.43;1.43;;;3.20;99.90;;;;;;5094576;28;20299;-88
2022/01/06 04:43:36;;;;;;;2.93;1.93;;;3.20;99.90;;;;;;5094713;28;20205;-88
2022/01/06 04:46:04;;;;;;;2.47;1.40;;;3.20;99.90;;;;;;5094569;28;20247;-88
2022/01/06 04:48:35;;;;;;;2.13;1.93;;;3.20;99.90;;;;;;5094790;28;20208;-88
2022/01/06 04:51:03;;;;;;;1.27;1.17;;;3.20;99.90;;;;;;5094674;28;20204;-88
2022/01/06 04:53:32;;;;;;;1.90;1.75;;;3.20;99.90;;;;;;5094860;28;20292;-88
2022/01/06 04:56:02;;;;;;;2.87;1.33;;;3.20;99.90;;;;;;5094494;28;20224;-88
2022/01/06 04:58:32;;;;;;;4.43;2.00;;;3.20;99.90;;;;;;5094314;28;20295;-88
2022/01/06 05:01:00;;;;;;;2.00;1.70;;;3.20;99.90;;;;;;5094011;28;20204;-88
2022/01/06 05:03:29;;;;;;;2.00;1.80;;;3.20;99.90;;;;;;5094609;28;20208;-87
2022/01/06 05:05:57;;;;;;;2.50;1.47;;;3.20;99.90;;;;;;5094246;28;20223;-88
2022/01/06 05:08:26;;;;;;;4.17;1.77;;;3.20;99.90;;;;;;5093931;28;20259;-88
2022/01/06 05:10:55;;;;;;;16.43;1.83;;;3.20;99.90;;;;;;5093677;28;20205;-88
2022/01/06 05:13:24;;;;;;;1.73;1.53;;;3.20;99.90;;;;;;5094524;28;20204;-88
2022/01/06 05:15:53;;;;;;;1.47;1.37;;;3.20;99.90;;;;;;5094075;28;20247;-88
2022/01/06 05:18:21;;;;;;;2.90;1.63;;;3.20;99.90;;;;;;5093725;28;20200;-87
2022/01/06 05:20:50;;;;;;;1.50;1.40;;;3.20;99.90;;;;;;5093945;28;20228;-88
2022/01/06 05:23:19;;;;;;;1.87;1.70;;;3.20;99.90;;;;;;5093779;28;20208;-87
2022/01/06 05:25:48;;;;;;;2.10;1.90;;;3.20;99.90;;;;;;5093410;28;20252;-88
2022/01/06 05:28:16;;;;;;;1.57;1.43;;;3.10;99.90;;;;;;5094287;28;20228;-88
2022/01/06 05:30:46;;;;;;;1.57;1.47;;;3.10;99.90;;;;;;5093424;28;20212;-88
2022/01/06 05:33:15;;;;;;;2.67;1.30;;;3.20;99.90;;;;;;5094262;28;20212;-88
2022/01/06 05:35:43;;;;;;;1.63;1.53;;;3.20;99.90;;;;;;5093583;28;20229;-88
2022/01/06 05:38:11;;;;;;;1.60;1.50;;;3.20;99.90;;;;;;5093571;28;20208;-88
2022/01/06 05:40:40;;;;;;;1.83;1.53;;;3.20;99.90;;;;;;5093029;28;20201;-88
2022/01/06 05:43:11;;;;;;;2.43;2.20;;;3.20;99.90;;;;;;5093683;28;20200;-88
2022/01/06 05:45:40;;;;;;;2.67;1.83;;;3.20;99.90;;;;;;5093625;28;20221;-88
2022/01/06 05:48:10;;;;;;;2.60;1.70;;;3.20;99.90;;;;;;5093502;28;20200;-88
2022/01/06 05:50:38;;;;;;;2.45;1.98;;;3.20;99.90;;;;;;5092688;28;20223;-88
2022/01/06 05:53:07;;;;;;;2.60;2.20;;;3.10;99.90;;;;;;5093693;28;20271;-87
2022/01/06 05:55:35;;;;;;;2.42;1.88;;;3.10;99.90;;;;;;5092993;28;20229;-87
2022/01/06 05:58:03;;;;;;;2.33;1.57;;;3.20;99.90;;;;;;5093258;28;20280;-87
2022/01/06 06:00:33;;;;;;;2.50;2.30;;;3.10;99.90;;;;;;5093003;28;20247;-86
2022/01/06 06:03:03;;;;;;;8.43;2.20;;;3.10;99.90;;;;;;5093049;28;20216;-87
2022/01/06 06:05:33;;;;;;;1.43;1.33;;;3.10;99.90;;;;;;5093002;28;20235;-88
2022/01/06 06:08:01;;;;;;;4.73;2.10;;;3.10;99.90;;;;;;5093233;28;20201;-87
2022/01/06 06:10:30;;;;;;;4.47;1.70;;;3.10;99.90;;;;;;5092557;28;20254;-87
2022/01/06 06:12:58;;;;;;;1.63;1.53;;;3.10;99.90;;;;;;5093313;28;20304;-87
2022/01/06 06:15:26;;;;;;;1.70;1.60;;;3.10;99.90;;;;;;5092995;28;20316;-87
2022/01/06 06:17:55;;;;;;;1.95;1.80;;;3.10;99.90;;;;;;5092860;28;20200;-88
2022/01/06 06:20:23;;;;;;;1.73;1.63;;;3.00;99.90;;;;;;5092732;28;20200;-87
2022/01/06 06:22:53;;;;;;;11.30;1.92;;;3.00;99.90;;;;;;5093050;28;20220;-87
2022/01/06 06:25:21;;;;;;;2.35;2.15;;;3.00;99.90;;;;;;5092981;28;20240;-87
2022/01/06 06:27:49;;;;;;;4.17;2.17;;;3.00;99.90;;;;;;5092396;28;20216;-85
2022/01/06 06:30:19;;;;;;;1.90;1.80;;;3.10;99.90;;;;;;5091376;28;20209;-85
2022/01/06 06:32:52;;;;;;;10.40;2.58;;;3.00;99.90;;;;;;5092781;28;20207;-85
2022/01/06 06:35:21;;;;;;;2.07;1.87;;;3.10;99.90;;;;;;5092492;28;20252;-85
2022/01/06 06:37:49;;;;;;;2.27;2.00;;;3.10;99.90;;;;;;5093008;28;20230;-85
2022/01/06 06:40:22;;;;;;;14.23;1.93;;;3.10;99.90;;;;;;5091911;28;20313;-85
2022/01/06 06:42:50;;;;;;;1.17;1.17;;;3.10;99.90;;;;;;5092521;28;20219;-85
2022/01/06 06:45:20;;;;;;;1.80;1.70;;;3.10;99.90;;;;;;5092746;28;20245;-85
2022/01/06 06:47:48;;;;;;;3.57;1.80;;;3.10;99.90;;;;;;5092301;28;20253;-85
2022/01/06 06:50:17;;;;;;;2.73;2.40;;;3.10;99.90;;;;;;5092057;28;20258;-86
2022/01/06 06:52:46;;;;;;;1.50;1.40;;;3.10;99.90;;;;;;5092382;28;20196;-85
2022/01/06 06:55:15;;;;;;;3.57;2.27;;;3.10;99.90;;;;;;5092202;28;20249;-85
2022/01/06 06:57:45;;;;;;;3.20;2.10;;;3.10;99.90;;;;;;5092264;28;20228;-85
2022/01/06 07:00:14;;;;;;;7.03;2.77;;;3.10;99.90;;;;;;5092050;28;20288;-85
2022/01/06 07:02:43;;;;;;;2.77;2.33;;;3.10;99.90;;;;;;5092702;28;20200;-85
2022/01/06 07:05:12;;;;;;;2.63;1.85;;;3.10;99.90;;;;;;5092433;28;20269;-85
2022/01/06 07:07:40;;;;;;;4.57;2.27;;;3.10;99.90;;;;;;5091872;28;20352;-85
2022/01/06 07:10:09;;;;;;;7.00;2.80;;;3.20;99.90;;;;;;5092115;28;20212;-85
2022/01/06 07:12:39;;;;;;;4.18;2.25;;;3.20;99.90;;;;;;5092493;28;20201;-85
2022/01/06 07:15:11;;;;;;;5.50;1.75;;;3.20;99.90;;;;;;5092231;28;20292;-85
2022/01/06 07:17:39;;;;;;;2.85;1.88;;;3.20;99.90;;;;;;5092755;28;20227;-85
2022/01/06 07:20:09;;;;;;;4.53;2.00;;;3.20;99.90;;;;;;5091784;28;20204;-85
2022/01/06 07:22:38;;;;;;;1.52;1.42;;;3.20;99.90;;;;;;5092264;28;20212;-85
2022/01/06 07:25:08;;;;;;;2.30;1.58;;;3.30;99.90;;;;;;5091549;28;20226;-85
2022/01/06 07:27:37;;;;;;;2.20;2.00;;;3.30;99.90;;;;;;5091944;28;20224;-85
2022/01/06 07:30:07;;;;;;;3.20;1.70;;;3.30;99.90;;;;;;5091610;28;20209;-85
2022/01/06 07:32:44;;;;;;;1.90;1.80;;;3.30;99.90;;;;;;5092251;28;20204;-85
2022/01/06 07:35:13;;;;;;;1.88;1.75;;;3.30;99.90;;;;;;5092033;28;20211;-85
2022/01/06 07:37:42;;;;;;;3.13;2.13;;;3.40;99.90;;;;;;5092039;28;20197;-85
2022/01/06 07:40:16;;;;;;;1.98;1.77;;;3.40;99.90;;;;;;5091456;28;20209;-85
2022/01/06 07:42:45;;;;;;;1.73;1.63;;;3.40;99.90;;;;;;5095464;28;20224;-86
2022/01/06 07:45:13;;;;;;;5.83;2.50;;;3.40;99.90;;;;;;5095839;28;20205;-85
2022/01/06 07:47:55;;;;;;;1.95;1.80;;;3.40;99.90;;;;;;5095437;28;20220;-86
2022/01/06 07:50:25;;;;;;;4.05;2.35;;;3.40;99.90;;;;;;5095556;28;20214;-86
2022/01/06 07:52:54;;;;;;;2.55;2.00;;;3.50;99.90;;;;;;5095674;28;20200;-86
2022/01/06 07:55:22;;;;;;;2.28;1.95;;;3.50;99.90;;;;;;5096028;28;20220;-86
2022/01/06 07:57:51;;;;;;;2.78;1.92;;;3.50;99.90;;;;;;5095445;28;20200;-86
2022/01/06 08:00:20;;;;;;;1.90;1.77;;;3.50;99.90;;;;;;5095513;28;20250;-86
2022/01/06 08:02:50;;;;;;;2.60;2.10;;;3.60;99.90;;;;;;5097896;28;20264;-85
2022/01/06 08:05:22;;;;;;;1.90;1.80;;;3.60;99.90;;;;;;5106205;28;20202;-85
2022/01/06 08:07:50;;;;;;;2.15;1.95;;;3.60;99.90;;;;;;5105318;28;20204;-86
2022/01/06 08:10:19;;;;;;;3.75;2.13;;;3.70;99.90;;;;;;5103758;28;20192;-86
2022/01/06 08:12:47;;;;;;;1.67;1.38;;;3.70;99.90;;;;;;5105496;28;20227;-86
2022/01/06 08:15:15;;;;;;;1.95;1.42;;;3.80;99.90;;;;;;5106035;28;20254;-86
2022/01/06 08:17:44;;;;;;;1.65;1.55;;;3.80;99.90;;;;;;5106857;27;20208;-86
2022/01/06 08:20:18;;;;;;;1.40;1.30;;;3.80;99.90;;;;;;5106241;28;20195;-86
2022/01/06 08:22:46;;;;;;;2.77;1.90;;;3.80;99.90;;;;;;5103020;28;20191;-86
2022/01/06 08:25:15;;;;;;;2.25;2.05;;;3.90;99.90;;;;;;5104014;28;20212;-86
2022/01/06 08:27:43;;;;;;;3.47;2.25;;;3.90;99.90;;;;;;5120161;27;20238;-89
2022/01/06 08:30:12;;;;;;;1.77;1.65;;;3.90;99.90;;;;;;5116897;27;20299;-86
2022/01/06 08:32:40;;;;;;;1.35;1.25;;;3.90;99.90;;;;;;5131531;27;20219;-86
2022/01/06 08:35:09;;;;;;;1.98;1.30;;;3.90;99.90;;;;;;5118213;27;20207;-86
2022/01/06 08:37:40;;;;;;;1.38;1.27;;;4.00;99.90;;;;;;5113395;27;20249;-86
2022/01/06 08:40:09;;;;;;;6.28;1.92;;;4.00;99.90;;;;;;5131516;27;20264;-86
2022/01/06 08:42:38;;;;;;;2.03;1.37;;;4.00;99.90;;;;;;5122191;27;20227;-86
2022/01/06 08:45:08;;;;;;;2.13;1.70;;;4.00;99.90;;;;;;5135755;27;20203;-86
2022/01/06 08:47:36;;;;;;;1.95;1.75;;;4.10;99.90;;;;;;5126464;27;20208;-86
2022/01/06 08:50:06;;;;;;;4.45;1.85;;;4.10;99.90;;;;;;5127299;27;20222;-86
2022/01/06 08:52:35;;;;;;;3.03;2.28;;;4.20;99.90;;;;;;5119241;27;20192;-86
2022/01/06 08:55:07;;;;;;;1.85;1.60;;;4.20;99.90;;;;;;5105729;28;20220;-86
2022/01/06 08:57:36;;;;;;;3.22;2.00;;;4.20;99.90;;;;;;5094530;28;20220;-86
2022/01/06 09:00:07;;;;;;;1.40;1.30;;;4.20;99.90;;;;;;5107953;28;20231;-86
2022/01/06 09:02:35;;;;;;;1.58;1.27;;;4.20;99.90;;;;;;5114865;28;20208;-86
2022/01/06 09:05:06;;;;;;;2.63;2.03;;;4.20;99.90;;;;;;5124382;27;20207;-86
2022/01/06 09:07:35;;;;;;;2.25;1.90;;;4.20;99.90;;;;;;5116525;27;20215;-86
2022/01/06 09:10:06;;;;;;;2.28;1.50;;;4.20;99.90;;;;;;5109601;27;20199;-87
2022/01/06 09:12:34;;;;;;;1.80;1.55;;;4.20;99.90;;;;;;5122521;27;20270;-86
2022/01/06 09:15:03;;;;;;;1.73;1.63;;;4.20;99.90;;;;;;5114181;28;20200;-86
2022/01/06 09:17:35;;;;;;;2.13;1.67;;;4.20;99.90;;;;;;5114824;27;20200;-86
2022/01/06 09:20:04;;;;;;;2.45;1.83;;;4.30;99.90;;;;;;5113600;28;20211;-85
2022/01/06 09:22:37;;;;;;;1.25;1.15;;;4.30;99.90;;;;;;5101861;27;20226;-86
2022/01/06 09:25:08;;;;;;;1.90;1.80;;;4.20;99.90;;;;;;5104482;28;20231;-85
2022/01/06 09:27:36;;;;;;;13.80;1.90;;;4.20;99.90;;;;;;5104306;28;20276;-86
2022/01/06 09:30:06;;;;;;;1.58;1.48;;;4.30;99.90;;;;;;5102538;28;20296;-86
2022/01/06 09:32:35;;;;;;;3.05;2.10;;;4.30;99.90;;;;;;5104870;27;20268;-86
2022/01/06 09:35:04;;;;;;;2.00;1.80;;;4.30;99.90;;;;;;5101426;28;20287;-85
2022/01/06 09:37:32;;;;;;;1.90;1.80;;;4.30;99.90;;;;;;5103879;28;20257;-85
2022/01/06 09:40:00;;;;;;;2.22;2.03;;;4.40;99.90;;;;;;5104401;28;20228;-87
2022/01/06 09:42:30;;;;;;;1.98;1.85;;;4.40;99.90;;;;;;5102950;28;20262;-87
2022/01/06 09:44:59;;;;;;;2.80;2.13;;;4.40;99.90;;;;;;5100985;28;20231;-86
2022/01/06 09:47:31;;;;;;;3.90;2.25;;;4.50;99.90;;;;;;5111274;28;20205;-86
2022/01/06 09:50:10;;;;;;;1.83;1.73;;;4.50;99.90;;;;;;5092505;28;20212;-87
2022/01/06 09:52:38;;;;;;;3.65;2.15;;;4.60;99.90;;;;;;5096658;28;20254;-86
2022/01/06 09:55:10;;;;;;;4.25;2.00;;;4.60;99.90;;;;;;5106481;28;20215;-86
2022/01/06 09:57:39;;;;;;;2.42;2.20;;;4.60;99.90;;;;;;5111889;28;20246;-87
2022/01/06 10:00:09;;;;;;;1.83;1.73;;;4.70;99.90;;;;;;5113305;27;20243;-87
2022/01/06 10:02:39;;;;;;;1.88;1.77;;;4.70;99.90;;;;;;5112584;28;20200;-86
2022/01/06 10:05:08;;;;;;;2.00;1.80;;;4.80;99.90;;;;;;5094595;28;20208;-86
2022/01/06 10:07:38;;;;;;;1.70;1.60;;;4.90;99.90;;;;;;5094309;28;20291;-86
2022/01/06 10:10:09;;;;;;;2.00;1.33;;;5.00;99.90;;;;;;5092179;28;20330;-86
2022/01/06 10:12:40;;;;;;;1.50;1.40;;;5.10;99.90;;;;;;5092235;28;20288;-86
2022/01/06 10:15:20;;;;;;;1.45;1.23;;;5.20;99.90;;;;;;5092358;28;20205;-86
2022/01/06 10:17:49;;;;;;;1.70;1.60;;;5.20;99.90;;;;;;5093696;28;20192;-85
2022/01/06 10:20:20;;;;;;;1.70;1.60;;;5.30;99.90;;;;;;5092279;28;20235;-88
2022/01/06 10:22:51;;;;;;;2.35;1.65;;;5.30;99.90;;;;;;5107340;28;20308;-86
2022/01/06 10:25:21;;;;;;;1.20;1.08;;;5.40;99.90;;;;;;5092288;28;20208;-85
2022/01/06 10:27:56;;;;;;;2.05;1.48;;;5.60;99.90;;;;;;5093879;28;20196;-86
2022/01/06 10:30:26;;;;;;;1.40;1.30;;;5.80;99.90;;;;;;5092264;28;20207;-85
2022/01/06 10:33:00;;;;;;;1.35;1.25;;;6.20;99.90;;;;;;5100812;28;20195;-86
2022/01/06 10:35:28;;;;;;;1.48;1.38;;;6.60;99.90;;;;;;5112873;28;20228;-85
2022/01/06 10:38:01;;;;;;;2.17;1.65;;;7.00;99.90;;;;;;5102696;28;20193;-85
2022/01/06 10:40:29;;;;;;;1.05;1.05;;;7.40;99.90;;;;;;5091862;28;20239;-86
2022/01/06 10:43:05;;;;;;;1.50;1.40;;;7.70;99.90;;;;;;5100154;28;20196;-86
2022/01/06 10:45:34;;;;;;;1.95;1.80;;;7.70;99.90;;;;;;5112293;27;20262;-86
2022/01/06 10:48:05;;;;;;;2.00;1.83;;;7.90;99.90;;;;;;5101593;28;20258;-85
2022/01/06 10:50:58;;;;;;;1.73;1.50;;;8.00;99.90;;;;;;5091631;28;20283;-85
2022/01/06 10:53:26;;;;;;;1.45;1.35;;;8.00;99.90;;;;;;5095825;28;20205;-85
2022/01/06 10:55:55;;;;;;;1.15;1.13;;;7.80;99.90;;;;;;5091753;28;20240;-85
2022/01/06 10:58:26;;;;;;;2.17;1.75;;;8.00;99.90;;;;;;5106161;28;20188;-85
2022/01/06 11:00:57;;;;;;;2.33;1.35;;;8.30;99.90;;;;;;5106408;27;20300;-85
2022/01/06 11:03:28;;;;;;;2.15;1.42;;;7.90;99.90;;;;;;5092230;28;20212;-85
2022/01/06 11:05:59;;;;;;;3.65;2.00;;;7.90;99.90;;;;;;5096218;28;20258;-85
2022/01/06 11:08:29;;;;;;;1.58;1.48;;;7.60;99.90;;;;;;5112495;28;20265;-85
2022/01/06 11:11:14;;;;;;;1.45;1.35;;;7.70;99.90;;;;;;5107555;28;20197;-85
2022/01/06 11:13:46;;;;;;;1.42;1.25;;;7.50;99.90;;;;;;5091682;28;20208;-85
2022/01/06 11:16:16;;;;;;;1.48;1.38;;;7.70;99.90;;;;;;5098372;28;20237;-84
2022/01/06 11:18:50;;;;;;;1.45;1.35;;;7.80;99.90;;;;;;5115774;27;20257;-84
2022/01/06 11:21:23;;;;;;;3.45;1.88;;;8.20;99.90;;;;;;5106995;28;20204;-84
2022/01/06 11:24:09;;;;;;;1.08;1.08;;;8.00;99.90;;;;;;5095517;28;20204;-84
2022/01/06 11:26:38;;;;;;;1.67;1.58;;;7.80;99.90;;;;;;5096361;28;20303;-84
2022/01/06 11:29:08;;;;;;;1.35;1.25;;;8.00;99.90;;;;;;5094991;28;20307;-84
2022/01/06 11:31:39;;;;;;;2.20;1.63;;;8.00;99.90;;;;;;5096552;28;20264;-84
2022/01/06 11:34:16;;;;;;;1.83;1.67;;;7.70;99.90;;;;;;5116409;28;20207;-84
2022/01/06 11:36:45;;;;;;;2.08;1.77;;;7.30;99.90;;;;;;5103119;28;20224;-84
2022/01/06 11:39:28;;;;;;;1.98;1.63;;;7.10;99.90;;;;;;5095551;28;20224;-84
2022/01/06 11:41:58;;;;;;;2.67;2.47;;;6.60;99.90;;;;;;5095561;28;20201;-84
2022/01/06 11:44:31;;;;;;;1.50;1.40;;;6.50;99.90;;;;;;5095600;28;20208;-84
2022/01/06 11:47:03;;;;;;;1.77;1.67;;;6.60;99.90;;;;;;5095349;28;20225;-84
2022/01/06 11:49:34;;;;;;;2.85;1.65;;;6.50;99.90;;;;;;5109226;28;20223;-84
2022/01/06 11:52:12;;;;;;;1.70;1.60;;;6.40;99.90;;;;;;5098190;28;20232;-84
2022/01/06 11:54:48;;;;;;;1.98;1.73;;;6.10;99.90;;;;;;5109789;28;20280;-85
2022/01/06 11:57:28;;;;;;;2.30;1.63;;;5.90;99.90;;;;;;5095414;28;20247;-85
2022/01/06 11:59:59;;;;;;;1.38;1.27;;;5.90;99.90;;;;;;5110638;28;20200;-85
2022/01/06 12:02:28;;;;;;;1.40;1.30;;;5.80;99.90;;;;;;5115857;28;20199;-84
2022/01/06 12:05:00;;;;;;;1.98;1.58;;;5.80;99.90;;;;;;5099590;28;20203;-85
2022/01/06 12:07:29;;;;;;;2.67;2.00;;;5.90;99.90;;;;;;5101416;28;20196;-85
2022/01/06 12:09:59;;;;;;;1.60;1.50;;;5.90;99.90;;;;;;5115191;27;20276;-88
2022/01/06 12:12:36;;;;;;;1.92;1.63;;;5.80;99.90;;;;;;5115178;28;20252;-85
2022/01/06 12:15:14;;;;;;;2.60;1.65;;;5.80;99.90;;;;;;5110828;28;20220;-85
2022/01/06 12:17:47;;;;;;;4.72;2.20;;;5.70;99.90;;;;;;5094145;28;20243;-83
2022/01/06 12:20:23;;;;;;;2.33;1.70;;;5.80;99.90;;;;;;5094406;28;20200;-84
2022/01/06 12:22:52;;;;;;;1.52;1.42;;;5.70;99.90;;;;;;5094310;28;20192;-84
2022/01/06 12:25:23;;;;;;;7.75;2.15;;;5.50;99.90;;;;;;5097532;28;20291;-83
2022/01/06 12:27:53;;;;;;;2.30;1.52;;;5.40;99.90;;;;;;5097022;28;20200;-84
2022/01/06 12:30:26;;;;;;;2.28;2.08;;;5.30;99.90;;;;;;5099105;28;20212;-89
2022/01/06 12:32:59;;;;;;;2.20;1.88;;;5.30;99.90;;;;;;5122919;27;20221;-84
2022/01/06 12:35:43;;;;;;;1.95;1.40;;;5.40;99.90;;;;;;5097878;28;20278;-84
2022/01/06 12:38:12;;;;;;;1.75;1.65;;;5.40;99.90;;;;;;5094884;28;20197;-86
2022/01/06 12:40:42;;;;;;;2.92;2.00;;;5.40;99.90;;;;;;5094875;28;20519;-90
2022/01/06 12:43:32;;;;;;;1.75;1.65;;;5.40;99.90;;;;;;5114243;27;20196;-86
2022/01/06 12:46:06;;;;;;;1.98;1.55;;;5.40;99.90;;;;;;5109414;28;20223;-86
2022/01/06 12:48:38;;;;;;;1.80;1.70;;;5.40;99.90;;;;;;5108230;28;20207;-85
2022/01/06 12:51:07;;;;;;;1.27;1.17;;;5.40;99.90;;;;;;5094687;28;20251;-84
2022/01/06 12:53:38;;;;;;;2.15;1.00;;;5.30;99.90;;;;;;5095871;28;20287;-85
2022/01/06 12:56:07;;;;;;;2.08;1.38;;;5.40;99.90;;;;;;5095749;28;20274;-86
2022/01/06 12:58:37;;;;;;;2.28;1.33;;;5.50;99.90;;;;;;5106568;28;20227;-85
2022/01/06 13:01:08;;;;;;;1.77;1.33;;;5.60;99.90;;;;;;5109456;28;20189;-85
2022/01/06 13:03:39;;;;;;;0.90;0.90;;;5.60;99.90;;;;;;5105494;28;20204;-85
2022/01/06 13:06:09;;;;;;;0.95;0.95;;;5.70;99.90;;;;;;5114778;27;20231;-85
2022/01/06 13:08:46;;;;;;;0.73;0.73;;;5.60;99.90;;;;;;5095263;28;20518;-84
2022/01/06 13:11:14;;;;;;;1.85;1.40;;;5.60;99.90;;;;;;5095190;28;20307;-82
2022/01/06 13:13:51;;;;;;;0.75;0.75;;;5.50;99.90;;;;;;5114438;28;20227;-86
2022/01/06 13:16:23;;;;;;;0.60;0.60;;;5.60;99.90;;;;;;5096367;28;20284;-83
2022/01/06 13:18:54;;;;;;;0.95;0.90;;;5.50;99.90;;;;;;5093442;28;20212;-83